createdAt,value
2023-01-19T00:01:07.347Z,99.90
2023-01-19T00:03:36.789Z,99.90
2023-01-19T00:06:08.333Z,99.90
2023-01-19T00:08:36.013Z,99.90
2023-01-19T00:11:03.833Z,99.90
2023-01-19T00:13:31.194Z,99.90
2023-01-19T00:15:58.203Z,99.90
2023-01-19T00:18:25.741Z,99.90
2023-01-19T00:20:52.600Z,99.90
2023-01-19T00:23:20.847Z,99.90
2023-01-19T00:25:49.055Z,99.90
2023-01-19T00:28:18.818Z,99.90
2023-01-19T00:30:46.210Z,99.90
2023-01-19T00:33:16.481Z,99.90
2023-01-19T00:35:43.692Z,99.90
2023-01-19T00:38:12.371Z,99.90
2023-01-19T00:40:39.678Z,99.90
2023-01-19T00:43:06.752Z,99.90
2023-01-19T00:45:34.165Z,99.90
2023-01-19T00:48:01.650Z,99.90
2023-01-19T00:50:32.553Z,99.90
2023-01-19T00:53:01.864Z,99.90
2023-01-19T00:55:32.251Z,99.90
2023-01-19T00:57:59.462Z,99.90
2023-01-19T01:00:26.817Z,99.90
2023-01-19T01:02:55.311Z,99.90
2023-01-19T01:05:22.756Z,99.90
2023-01-19T01:07:50.730Z,99.90
2023-01-19T01:10:23.711Z,99.90
2023-01-19T01:12:57.323Z,99.90
2023-01-19T01:15:27.760Z,99.90
2023-01-19T01:17:55.960Z,99.90
2023-01-19T01:20:28.520Z,99.90
2023-01-19T01:22:57.568Z,99.90
2023-01-19T01:25:27.776Z,99.90
2023-01-19T01:27:55.466Z,99.90
2023-01-19T01:30:23.122Z,99.90
2023-01-19T01:32:50.573Z,99.90
2023-01-19T01:35:18.422Z,99.90
2023-01-19T01:37:45.579Z,99.90
2023-01-19T01:40:17.613Z,99.90
2023-01-19T01:42:45.787Z,99.90
2023-01-19T01:45:40.164Z,99.90
2023-01-19T01:48:30.894Z,99.90
2023-01-19T01:51:32.089Z,99.90
2023-01-19T01:54:27.004Z,99.90
2023-01-19T01:57:02.979Z,99.90
2023-01-19T01:59:44.484Z,99.90
2023-01-19T02:02:39.965Z,99.90
2023-01-19T02:05:33.498Z,99.90
2023-01-19T02:08:49.270Z,99.90
2023-01-19T02:11:35.879Z,99.90
2023-01-19T02:14:06.128Z,99.90
2023-01-19T02:16:36.363Z,99.90
2023-01-19T02:19:08.537Z,99.90
2023-01-19T02:22:08.060Z,99.90
2023-01-19T02:24:36.090Z,99.90
2023-01-19T02:27:06.273Z,99.90
2023-01-19T02:29:34.933Z,99.90
2023-01-19T02:32:02.984Z,99.90
2023-01-19T02:34:31.447Z,99.90
2023-01-19T02:37:12.008Z,99.90
2023-01-19T02:39:52.355Z,99.90
2023-01-19T02:42:24.033Z,99.90
2023-01-19T02:44:55.480Z,99.90
2023-01-19T02:47:23.564Z,99.90
2023-01-19T02:50:00.962Z,99.90
2023-01-19T02:52:28.422Z,99.90
2023-01-19T02:55:27.797Z,99.90
2023-01-19T02:58:24.691Z,99.90
2023-01-19T03:01:50.006Z,99.90
2023-01-19T03:04:27.657Z,99.90
2023-01-19T03:07:38.937Z,99.90
2023-01-19T03:10:45.129Z,99.90
2023-01-19T03:13:54.717Z,99.90
2023-01-19T03:16:45.366Z,99.90
2023-01-19T03:19:28.627Z,99.90
2023-01-19T03:22:05.224Z,99.90
2023-01-19T03:24:40.359Z,99.90
2023-01-19T03:27:40.711Z,99.90
2023-01-19T03:30:22.125Z,99.90
2023-01-19T03:32:59.629Z,99.90
2023-01-19T03:35:35.146Z,99.90
2023-01-19T03:38:12.901Z,99.90
2023-01-19T03:40:41.572Z,99.90
2023-01-19T03:43:10.311Z,99.90
2023-01-19T03:45:40.114Z,99.90
2023-01-19T03:48:07.969Z,99.90
2023-01-19T03:50:35.147Z,99.90
2023-01-19T03:53:11.050Z,99.90
2023-01-19T03:55:47.280Z,99.90
2023-01-19T03:58:14.573Z,99.90
2023-01-19T04:00:41.618Z,99.90
2023-01-19T04:03:16.693Z,99.90
2023-01-19T04:05:44.803Z,99.90
2023-01-19T04:08:12.870Z,99.90
2023-01-19T04:10:39.930Z,99.90
2023-01-19T04:13:06.866Z,99.90
2023-01-19T04:15:34.023Z,99.90
2023-01-19T04:18:01.548Z,99.90
2023-01-19T04:20:29.379Z,99.90
2023-01-19T04:23:00.931Z,99.90
2023-01-19T04:25:29.191Z,99.90
2023-01-19T04:27:58.185Z,99.90
2023-01-19T04:30:26.147Z,99.90
2023-01-19T04:32:55.330Z,99.90
2023-01-19T04:35:23.499Z,99.90
2023-01-19T04:37:50.653Z,99.90
2023-01-19T04:40:17.838Z,99.90
2023-01-19T04:42:46.155Z,99.90
2023-01-19T04:45:14.568Z,99.90
2023-01-19T04:47:42.535Z,99.90
2023-01-19T04:50:11.545Z,99.90
2023-01-19T04:52:38.522Z,99.90
2023-01-19T04:55:07.106Z,99.90
2023-01-19T04:57:34.118Z,99.90
2023-01-19T05:00:01.129Z,99.90
2023-01-19T05:02:28.207Z,99.90
2023-01-19T05:04:55.085Z,99.90
2023-01-19T05:07:21.943Z,99.90
2023-01-19T05:09:48.952Z,99.90
2023-01-19T05:12:16.215Z,99.90
2023-01-19T05:14:43.278Z,99.90
2023-01-19T05:17:10.874Z,99.90
2023-01-19T05:19:37.882Z,99.90
2023-01-19T05:22:06.495Z,99.90
2023-01-19T05:24:33.500Z,99.90
2023-01-19T05:27:00.376Z,99.90
2023-01-19T05:29:27.385Z,99.90
2023-01-19T05:31:54.298Z,99.90
2023-01-19T05:34:21.288Z,99.90
2023-01-19T05:36:48.175Z,99.90
2023-01-19T05:39:15.483Z,99.90
2023-01-19T05:41:43.362Z,99.90
2023-01-19T05:44:10.281Z,99.90
2023-01-19T05:46:37.785Z,99.90
2023-01-19T05:49:05.016Z,99.90
2023-01-19T05:51:35.131Z,99.90
2023-01-19T05:54:02.444Z,99.90
2023-01-19T05:56:29.352Z,99.90
2023-01-19T05:58:56.452Z,99.90
2023-01-19T06:01:23.523Z,99.90
2023-01-19T06:03:50.649Z,99.90
2023-01-19T06:06:18.663Z,99.90
2023-01-19T06:08:45.952Z,99.90
2023-01-19T06:11:13.256Z,99.90
2023-01-19T06:13:41.983Z,99.90
2023-01-19T06:16:10.486Z,99.90
2023-01-19T06:18:37.748Z,99.90
2023-01-19T06:21:10.324Z,99.90
2023-01-19T06:23:37.248Z,99.90
2023-01-19T06:26:04.335Z,99.90
2023-01-19T06:28:31.659Z,99.90
2023-01-19T06:30:58.673Z,99.90
2023-01-19T06:33:27.738Z,99.90
2023-01-19T06:35:56.248Z,99.90
2023-01-19T06:38:23.773Z,99.90
2023-01-19T06:41:03.045Z,99.90
2023-01-19T06:43:31.280Z,99.90
2023-01-19T06:46:00.482Z,99.90
2023-01-19T06:48:27.833Z,99.90
2023-01-19T06:50:55.285Z,99.90
2023-01-19T06:53:22.796Z,99.90
2023-01-19T06:55:49.677Z,99.90
2023-01-19T06:58:16.781Z,99.90
2023-01-19T07:00:43.851Z,99.90
2023-01-19T07:03:22.187Z,99.90
2023-01-19T07:05:56.708Z,99.90
2023-01-19T07:08:24.455Z,99.90
2023-01-19T07:11:24.455Z,99.90
2023-01-19T07:13:41.279Z,99.90
2023-01-19T07:16:14.336Z,99.90
2023-01-19T07:18:41.517Z,99.90
2023-01-19T07:21:09.307Z,99.90
2023-01-19T07:23:37.953Z,99.90
2023-01-19T07:26:05.004Z,99.90
2023-01-19T07:28:32.741Z,99.90
2023-01-19T07:30:59.794Z,99.90
2023-01-19T07:33:27.030Z,99.90
2023-01-19T07:35:54.625Z,99.90
2023-01-19T07:38:21.808Z,99.90
2023-01-19T07:40:48.681Z,99.90
2023-01-19T07:43:16.352Z,99.90
2023-01-19T07:45:44.824Z,99.90
2023-01-19T07:48:11.953Z,99.90
2023-01-19T07:50:38.871Z,99.90
2023-01-19T07:53:09.061Z,99.90
2023-01-19T07:55:36.158Z,99.90
2023-01-19T07:58:07.343Z,99.90
2023-01-19T08:00:37.864Z,99.90
2023-01-19T08:03:05.694Z,99.90
2023-01-19T08:05:33.775Z,99.90
2023-01-19T08:08:00.706Z,99.90
2023-01-19T08:10:29.198Z,99.90
2023-01-19T08:12:58.092Z,99.90
2023-01-19T08:15:26.241Z,99.90
2023-01-19T08:18:02.219Z,99.90
2023-01-19T08:20:30.012Z,99.90
2023-01-19T08:23:01.198Z,99.90
2023-01-19T08:25:44.264Z,99.90
2023-01-19T08:28:15.675Z,99.90
2023-01-19T08:30:44.919Z,99.90
2023-01-19T08:33:13.705Z,99.90
2023-01-19T08:35:47.147Z,99.90
2023-01-19T08:38:14.009Z,99.90
2023-01-19T08:40:42.427Z,99.90
2023-01-19T08:43:16.853Z,99.90
2023-01-19T08:45:51.413Z,99.90
2023-01-19T08:48:22.639Z,99.90
2023-01-19T08:50:51.997Z,99.90
2023-01-19T08:53:21.028Z,99.90
2023-01-19T08:55:47.967Z,99.90
2023-01-19T08:58:14.889Z,99.90
2023-01-19T09:04:00.659Z,99.90
2023-01-19T09:06:28.326Z,99.90
2023-01-19T09:08:55.220Z,99.90
2023-01-19T09:11:22.126Z,99.90
2023-01-19T09:13:49.685Z,99.90
2023-01-19T09:16:16.663Z,99.70
2023-01-19T09:18:44.992Z,98.40
2023-01-19T09:21:13.692Z,99.00
2023-01-19T09:23:40.698Z,99.00
2023-01-19T09:26:07.642Z,99.90
2023-01-19T09:28:34.874Z,99.90
2023-01-19T09:31:07.993Z,99.90
2023-01-19T09:33:35.678Z,99.90
2023-01-19T09:36:02.693Z,99.90
2023-01-19T09:38:32.611Z,99.90
2023-01-19T09:41:01.130Z,99.90
2023-01-19T09:43:42.528Z,99.90
2023-01-19T09:46:29.908Z,99.90
2023-01-19T09:49:04.895Z,99.90
2023-01-19T09:51:41.801Z,99.90
2023-01-19T09:54:29.751Z,99.90
2023-01-19T09:56:56.714Z,98.80
2023-01-19T09:59:29.524Z,97.10
2023-01-19T10:02:36.092Z,97.60
2023-01-19T10:05:30.710Z,96.40
2023-01-19T10:08:55.419Z,96.50
2023-01-19T10:12:26.710Z,94.90
2023-01-19T10:15:12.012Z,94.50
2023-01-19T10:18:11.721Z,92.00
2023-01-19T10:20:50.928Z,88.90
2023-01-19T10:23:41.259Z,88.50
2023-01-19T10:26:26.966Z,89.40
2023-01-19T10:29:05.181Z,86.60
2023-01-19T10:31:37.916Z,86.90
2023-01-19T10:34:04.988Z,85.20
2023-01-19T10:36:39.649Z,83.00
2023-01-19T10:39:15.761Z,80.00
2023-01-19T10:41:50.760Z,74.70
2023-01-19T10:44:35.585Z,70.40
2023-01-19T10:47:06.982Z,68.00
2023-01-19T10:49:42.994Z,65.50
2023-01-19T10:52:37.402Z,62.70
2023-01-19T10:55:08.092Z,59.40
2023-01-19T10:57:43.237Z,57.20
2023-01-19T11:00:43.399Z,55.60
2023-01-19T11:03:29.282Z,55.90
2023-01-19T11:06:16.059Z,55.50
2023-01-19T11:08:51.228Z,59.00
2023-01-19T11:11:21.405Z,62.60
2023-01-19T11:14:14.529Z,65.50
2023-01-19T11:16:50.295Z,67.30
2023-01-19T11:19:28.922Z,70.80
2023-01-19T11:22:24.636Z,72.50
2023-01-19T11:24:52.189Z,74.00
2023-01-19T11:27:21.927Z,76.20
2023-01-19T11:30:02.223Z,76.00
2023-01-19T11:32:29.117Z,77.20
2023-01-19T11:34:56.119Z,77.80
2023-01-19T11:37:31.827Z,79.00
2023-01-19T11:40:04.105Z,78.90
2023-01-19T11:42:34.459Z,79.70
2023-01-19T11:45:19.806Z,80.30
2023-01-19T11:47:50.205Z,80.90
2023-01-19T11:50:32.154Z,81.80
2023-01-19T11:53:24.136Z,82.50
2023-01-19T11:56:29.050Z,81.80
2023-01-19T11:58:56.657Z,84.00
2023-01-19T12:01:38.753Z,80.20
2023-01-19T12:04:18.615Z,77.70
2023-01-19T12:06:53.919Z,77.80
2023-01-19T12:09:30.088Z,74.10
2023-01-19T12:12:08.314Z,72.80
2023-01-19T12:14:45.905Z,73.00
2023-01-19T12:17:40.358Z,74.30
2023-01-19T12:20:31.379Z,74.90
2023-01-19T12:23:10.823Z,75.80
2023-01-19T12:26:20.013Z,77.50
2023-01-19T12:28:52.095Z,77.90
2023-01-19T12:31:23.018Z,77.60
2023-01-19T12:33:51.425Z,77.90
2023-01-19T12:36:30.192Z,78.10
2023-01-19T12:39:16.756Z,78.90
2023-01-19T12:41:45.836Z,79.00
2023-01-19T12:44:16.103Z,79.80
2023-01-19T12:46:55.039Z,80.10
2023-01-19T12:49:40.527Z,80.60
2023-01-19T12:52:36.059Z,80.90
2023-01-19T12:55:15.045Z,81.10
2023-01-19T12:57:54.952Z,81.40
2023-01-19T13:00:21.874Z,81.50
2023-01-19T13:02:59.760Z,81.20
2023-01-19T13:05:33.481Z,81.40
2023-01-19T13:08:06.535Z,80.60
2023-01-19T13:11:10.675Z,80.90
2023-01-19T13:13:48.721Z,80.70
2023-01-19T13:16:18.538Z,79.70
2023-01-19T13:18:58.443Z,79.80
2023-01-19T13:21:35.453Z,79.70
2023-01-19T13:24:09.799Z,80.10
2023-01-19T13:26:54.887Z,80.10
2023-01-19T13:29:34.953Z,80.40
2023-01-19T13:32:19.354Z,80.00
2023-01-19T13:34:57.482Z,80.20
2023-01-19T13:37:36.960Z,80.60
2023-01-19T13:40:05.193Z,81.30
2023-01-19T13:42:41.405Z,82.40
2023-01-19T13:45:39.817Z,79.10
2023-01-19T13:48:16.606Z,73.70
2023-01-19T13:50:58.398Z,71.10
2023-01-19T13:53:25.609Z,63.20
2023-01-19T13:56:21.839Z,60.30
2023-01-19T13:59:12.994Z,63.40
2023-01-19T14:01:46.508Z,66.30
2023-01-19T14:04:33.830Z,68.50
2023-01-19T14:07:13.091Z,69.20
2023-01-19T14:09:40.050Z,70.40
2023-01-19T14:12:17.491Z,71.40
2023-01-19T14:14:49.458Z,72.40
2023-01-19T14:17:30.595Z,73.60
2023-01-19T14:20:00.986Z,74.60
2023-01-19T14:22:42.158Z,75.80
2023-01-19T14:25:33.513Z,76.60
2023-01-19T14:28:40.498Z,76.50
2023-01-19T14:31:24.075Z,77.50
2023-01-19T14:33:55.672Z,78.30
2023-01-19T14:36:36.135Z,78.90
2023-01-19T14:39:04.135Z,79.40
2023-01-19T14:41:52.207Z,79.90
2023-01-19T14:44:38.572Z,79.80
2023-01-19T14:47:20.871Z,80.10
2023-01-19T14:49:48.178Z,80.10
2023-01-19T14:52:36.701Z,80.40
2023-01-19T14:55:08.138Z,80.90
2023-01-19T14:57:37.041Z,80.80
2023-01-19T15:00:20.964Z,80.90
2023-01-19T15:02:48.491Z,81.30
2023-01-19T15:05:16.318Z,81.50
2023-01-19T15:07:46.756Z,81.80
2023-01-19T15:10:26.132Z,82.20
2023-01-19T15:12:56.234Z,82.50
2023-01-19T15:15:34.917Z,82.80
2023-01-19T15:18:06.476Z,82.90
2023-01-19T15:20:33.375Z,83.40
2023-01-19T15:23:00.240Z,83.30
2023-01-19T15:25:27.170Z,83.50
2023-01-19T15:27:59.349Z,83.50
2023-01-19T15:30:33.463Z,84.00
2023-01-19T15:33:01.810Z,84.30
2023-01-19T15:35:28.755Z,84.50
2023-01-19T15:37:55.808Z,84.60
2023-01-19T15:40:25.885Z,84.90
2023-01-19T15:42:52.795Z,85.10
2023-01-19T15:45:39.013Z,85.00
2023-01-19T15:48:11.205Z,85.20
2023-01-19T15:50:44.986Z,85.40
2023-01-19T15:53:20.508Z,85.60
2023-01-19T15:55:56.649Z,86.00
2023-01-19T15:58:24.906Z,86.30
2023-01-19T16:00:59.183Z,86.50
2023-01-19T16:03:26.511Z,86.70
2023-01-19T16:05:53.427Z,86.60
2023-01-19T16:08:21.894Z,86.70
2023-01-19T16:10:48.843Z,87.40
2023-01-19T16:13:15.733Z,88.30
2023-01-19T16:15:42.662Z,89.00
2023-01-19T16:18:09.708Z,89.60
2023-01-19T16:20:36.621Z,90.10
2023-01-19T16:23:18.042Z,90.30
2023-01-19T16:25:54.309Z,90.50
2023-01-19T16:28:21.181Z,90.80
2023-01-19T16:30:48.238Z,91.10
2023-01-19T16:33:15.224Z,91.70
2023-01-19T16:35:42.082Z,92.00
2023-01-19T16:38:09.946Z,92.10
2023-01-19T16:40:41.834Z,92.20
2023-01-19T16:43:21.889Z,92.40
2023-01-19T16:46:04.216Z,92.70
2023-01-19T16:48:32.189Z,93.00
2023-01-19T16:51:05.929Z,93.10
2023-01-19T16:53:35.171Z,93.20
2023-01-19T16:56:13.230Z,93.60
2023-01-19T16:58:43.594Z,93.50
2023-01-19T17:01:20.150Z,93.90
2023-01-19T17:03:47.892Z,94.30
2023-01-19T17:06:22.718Z,94.80
2023-01-19T17:08:52.619Z,95.00
2023-01-19T17:11:30.881Z,95.50
2023-01-19T17:14:06.930Z,95.80
2023-01-19T17:16:36.061Z,96.10
2023-01-19T17:19:07.356Z,96.00
2023-01-19T17:21:35.847Z,96.20
2023-01-19T17:24:02.771Z,96.30
2023-01-19T17:26:31.026Z,96.50
2023-01-19T17:29:08.007Z,96.80
2023-01-19T17:31:36.292Z,97.30
2023-01-19T17:34:04.307Z,97.80
2023-01-19T17:36:33.692Z,98.10
2023-01-19T17:39:08.334Z,98.30
2023-01-19T17:41:36.129Z,98.40
2023-01-19T17:44:06.219Z,99.00
2023-01-19T17:46:38.055Z,99.50
2023-01-19T17:49:07.735Z,99.90
2023-01-19T17:51:35.809Z,99.90
2023-01-19T17:54:04.015Z,99.90
2023-01-19T17:56:36.614Z,99.90
2023-01-19T17:59:07.533Z,99.90
2023-01-19T18:01:39.748Z,99.90
2023-01-19T18:04:08.888Z,99.90
2023-01-19T18:06:37.109Z,99.90
2023-01-19T18:09:06.841Z,99.90
2023-01-19T18:11:35.032Z,99.90
2023-01-19T18:14:02.072Z,99.90
2023-01-19T18:16:30.638Z,99.90
2023-01-19T18:18:57.979Z,99.90
2023-01-19T18:21:28.141Z,99.90
2023-01-19T18:24:03.030Z,99.90
2023-01-19T18:26:33.267Z,99.90
2023-01-19T18:29:00.879Z,99.90
2023-01-19T18:31:28.747Z,99.90
2023-01-19T18:33:55.851Z,99.90
2023-01-19T18:36:23.048Z,99.90
2023-01-19T18:38:50.133Z,99.90
2023-01-19T18:41:21.216Z,99.90
2023-01-19T18:43:49.087Z,99.90
2023-01-19T18:46:17.041Z,99.90
2023-01-19T18:48:44.535Z,99.90
2023-01-19T18:51:15.791Z,99.90
2023-01-19T18:53:44.211Z,99.90
2023-01-19T18:56:15.611Z,99.90
2023-01-19T18:58:43.288Z,99.90
2023-01-19T19:01:32.301Z,99.90
2023-01-19T19:03:59.884Z,99.90
2023-01-19T19:06:27.760Z,99.90
2023-01-19T19:08:59.018Z,99.90
2023-01-19T19:11:26.928Z,99.90
2023-01-19T19:14:01.500Z,99.90
2023-01-19T19:16:30.080Z,99.90
2023-01-19T19:18:57.058Z,99.90
2023-01-19T19:21:25.294Z,99.90
2023-01-19T19:23:58.016Z,99.90
2023-01-19T19:26:28.108Z,99.90
2023-01-19T19:28:55.307Z,99.90
2023-01-19T19:31:26.015Z,99.90
2023-01-19T19:33:54.930Z,99.90
2023-01-19T19:36:24.618Z,99.90
2023-01-19T19:38:51.811Z,99.90
2023-01-19T19:41:24.105Z,99.90
2023-01-19T19:43:51.183Z,99.90
2023-01-19T19:46:21.271Z,99.90
2023-01-19T19:48:49.670Z,99.90
2023-01-19T19:51:27.785Z,99.90
2023-01-19T19:53:59.700Z,99.90
2023-01-19T19:56:30.914Z,99.90
2023-01-19T19:58:59.655Z,99.90
2023-01-19T20:01:33.396Z,99.90
2023-01-19T20:04:12.497Z,99.90
2023-01-19T20:06:44.550Z,99.90
2023-01-19T20:09:14.751Z,99.90
2023-01-19T20:11:46.451Z,99.90
2023-01-19T20:14:16.085Z,99.90
2023-01-19T20:16:43.578Z,99.90
2023-01-19T20:19:11.227Z,99.90
2023-01-19T20:21:41.948Z,99.90
2023-01-19T20:24:18.173Z,99.90
2023-01-19T20:26:52.727Z,99.90
2023-01-19T20:29:20.703Z,99.90
2023-01-19T20:31:53.911Z,99.90
2023-01-19T20:34:28.403Z,99.90
2023-01-19T20:36:56.965Z,99.90
2023-01-19T20:39:25.118Z,99.90
2023-01-19T20:41:52.761Z,99.90
2023-01-19T20:44:25.032Z,99.90
2023-01-19T20:46:54.535Z,99.90
2023-01-19T20:49:22.570Z,99.90
2023-01-19T20:51:51.771Z,99.90
2023-01-19T20:54:27.208Z,99.90
2023-01-19T20:56:54.463Z,99.90
2023-01-19T20:59:22.131Z,99.90
2023-01-19T21:01:49.831Z,99.90
2023-01-19T21:04:17.697Z,99.90
2023-01-19T21:06:45.084Z,99.90
2023-01-19T21:09:11.964Z,99.90
2023-01-19T21:11:39.913Z,99.90
2023-01-19T21:14:07.796Z,99.90
2023-01-19T21:16:36.681Z,99.90
2023-01-19T21:19:05.020Z,99.90
2023-01-19T21:21:32.288Z,99.90
2023-01-19T21:24:03.141Z,99.90
2023-01-19T21:26:31.332Z,99.90
2023-01-19T21:29:01.091Z,99.90
2023-01-19T21:31:28.781Z,99.90
2023-01-19T21:33:57.709Z,99.90
2023-01-19T21:36:25.254Z,99.90
2023-01-19T21:38:52.793Z,99.90
2023-01-19T21:41:20.108Z,99.90
2023-01-19T21:43:47.196Z,99.90
2023-01-19T21:46:28.909Z,99.90
2023-01-19T21:49:02.915Z,99.90
2023-01-19T21:51:33.398Z,99.90
2023-01-19T21:54:05.584Z,99.90
2023-01-19T21:56:33.961Z,99.90
2023-01-19T21:59:04.490Z,99.90
2023-01-19T22:01:33.589Z,99.90
2023-01-19T22:04:01.061Z,99.90
2023-01-19T22:06:29.524Z,99.90
2023-01-19T22:08:58.189Z,99.90
2023-01-19T22:11:25.477Z,99.90
2023-01-19T22:13:52.769Z,99.90
2023-01-19T22:16:23.180Z,99.90
2023-01-19T22:18:56.166Z,99.90
2023-01-19T22:21:33.425Z,99.90
2023-01-19T22:24:06.986Z,99.90
2023-01-19T22:26:36.734Z,99.90
2023-01-19T22:29:06.623Z,99.90
2023-01-19T22:31:33.669Z,99.90
2023-01-19T22:34:00.586Z,99.90
2023-01-19T22:36:36.011Z,99.90
2023-01-19T22:39:12.619Z,99.90
2023-01-19T22:41:44.736Z,99.90
2023-01-19T22:44:21.400Z,99.90
2023-01-19T22:46:51.018Z,99.90
2023-01-19T22:49:18.807Z,99.90
2023-01-19T22:51:47.001Z,99.90
2023-01-19T22:54:14.539Z,99.90
2023-01-19T22:56:42.514Z,99.90
2023-01-19T22:59:09.764Z,99.90
2023-01-19T23:01:43.785Z,99.90
2023-01-19T23:04:15.706Z,99.90
2023-01-19T23:06:46.675Z,99.90
2023-01-19T23:09:14.959Z,99.90
2023-01-19T23:11:51.195Z,99.90
2023-01-19T23:14:22.114Z,99.90
2023-01-19T23:16:49.455Z,99.90
2023-01-19T23:19:17.643Z,99.90
2023-01-19T23:21:45.763Z,99.90
2023-01-19T23:24:12.722Z,99.90
2023-01-19T23:26:39.809Z,99.90
2023-01-19T23:29:14.931Z,99.90
2023-01-19T23:31:49.455Z,99.90
2023-01-19T23:34:17.070Z,99.90
2023-01-19T23:36:44.966Z,99.90
2023-01-19T23:39:22.047Z,99.90
2023-01-19T23:41:50.038Z,99.90
2023-01-19T23:44:18.316Z,99.90
2023-01-19T23:46:46.397Z,99.90
2023-01-19T23:49:13.975Z,99.90
2023-01-19T23:51:42.666Z,99.90
2023-01-19T23:54:09.554Z,99.90
2023-01-19T23:56:38.334Z,99.90
2023-01-19T23:59:13.947Z,99.90
